Espyville, Pennsylvania
Current Conditions -  °F | °C
As of 11:53 AM on Thursday 23 Oct 2014 (Local Time) from KGKJ Reporting Station
Few Clouds Few Clouds  
Wind Chill: 13°   Ceiling: Unl
Heat Index: 13°   Visibility: 10mi
Dew Point:   Wind: 9mph
Humidity: 62%   Direction: 10°N
Pressure: 30.13"   Gusts: 18mph
Location:  41.6811°N, 80.4288°W
Report Text: KGKJ 231553Z AUTO 01008G16KT 10SM FEW029 13/06 A3013 RMK AO2 SLP206 T01280056 TSNO
Loading
Personal Weather Stations






























Interactive Weather Map
Tropical Storm Tracking
New forecast layout! Learn more

10-Day Weather Forecast

Advertisements
Track Severe Weather on mobile